Main page
METAR-TAF:

METAR-TAF

Airports :

Araxos Airport

Araxos, Greece

latitude: 38-09N, longitude: 021-25E, elevation: 11 m

Current weather observation

The report was made 39 minutes ago, at 09:50 UTC
Wind 9 kt from the West
Temperature 28°C
Humidity 66%
Pressure 1008 hPa
Visibility 10 km or more
Few clouds at a height of 2000 ft

METAR: LGRX 180950Z 27009KT 9999 FEW020 28/21 Q1008

Time: 13:29 (10:29 UTC)

Forecast

The report was made 2 hours and 29 minutes ago, at 08:00 UTC
Forecast valid from 18 at 09 UTC to 18 at 18 UTC
Wind 10 kt from the West/Northwest
Visibility 10 km or more
Few clouds at a height of 2500 ft

TAF: LGRX 180800Z 1809/1818 30010KT 9999 FEW025

Weather observations and forecasts of more than 4000 airports (METAR and TAF reports).

The available stations are represented by yellow and red dots on the map.

Hover mouse over dot to see the name of the station.

Then click to see weather observations and forecasts.

To change the map : click on the green buttons with a black cross to zoom in, on the green button with a dash to zoom out, or on the green arrows for adjacent maps.


METAR-TAF: